Time;durP1;ratioP1;P1;durP2;ratioP2;P2;SDS_P1;SDS_P2;PMS_P1;PMS_P2;Temp;Humidity;BMP_temperature;BMP_pressure;BME280_temperature;BME280_humidity;BME280_pressure;Samples;Min_cycle;Max_cycle;Signal;HPM_P1;HPM_P2
2022/03/09 00:02:08;;;;;;;15.52;8.23;;;;;;;-0.79;54.52;99790.41;4459473;32;34764;-79
2022/03/09 00:04:36;;;;;;;21.25;9.15;;;;;;;-1.22;56.13;99784.34;4470997;32;34405;-78
2022/03/09 00:07:04;;;;;;;20.65;8.32;;;;;;;-1.85;58.95;99779.00;4469435;32;33762;-79
2022/03/09 00:09:32;;;;;;;13.50;7.05;;;;;;;-1.50;58.08;99778.81;4469748;32;33481;-78
2022/03/09 00:12:02;;;;;;;13.48;6.12;;;;;;;-0.58;55.62;99786.19;4466713;32;36059;-78
2022/03/09 00:14:30;;;;;;;12.35;6.37;;;;;;;0.14;51.51;99774.47;4441521;32;34302;-78
2022/03/09 00:16:58;;;;;;;14.50;5.87;;;;;;;-0.50;51.79;99783.06;4454996;32;33797;-79
2022/03/09 00:19:28;;;;;;;13.18;6.22;;;;;;;-0.74;53.42;99788.94;4455093;32;33982;-78
2022/03/09 00:21:56;;;;;;;15.98;7.70;;;;;;;-0.12;51.73;99788.84;4457034;32;34927;-78
2022/03/09 00:24:24;;;;;;;14.55;6.68;;;;;;;-1.29;56.25;99794.22;4470820;32;34485;-78
2022/03/09 00:26:52;;;;;;;15.18;7.37;;;;;;;-1.31;56.10;99798.41;4465111;32;33696;-79
2022/03/09 00:29:20;;;;;;;17.77;8.30;;;;;;;-1.58;58.13;99798.91;4455489;32;33939;-78
2022/03/09 00:31:48;;;;;;;13.85;7.35;;;;;;;-1.36;56.79;99793.06;4454948;32;35863;-78
2022/03/09 00:34:16;;;;;;;13.93;6.75;;;;;;;-0.57;54.57;99793.03;4456990;32;34170;-78
2022/03/09 00:36:44;;;;;;;14.80;6.68;;;;;;;-0.28;52.20;99795.91;4454659;32;34740;-79
2022/03/09 00:39:12;;;;;;;15.25;7.47;;;;;;;-1.39;54.40;99793.81;4455042;32;34568;-78
2022/03/09 00:41:40;;;;;;;15.65;7.07;;;;;;;-0.58;53.31;99803.22;4444498;32;35957;-78
2022/03/09 00:44:08;;;;;;;12.32;7.00;;;;;;;-0.88;55.11;99790.00;4454354;32;35285;-78
2022/03/09 00:46:37;;;;;;;15.60;7.37;;;;;;;-1.99;59.76;99795.34;4454874;32;33764;-78
2022/03/09 00:49:05;;;;;;;16.98;7.97;;;;;;;-0.59;56.30;99784.44;4454677;32;34039;-78
2022/03/09 00:51:36;;;;;;;15.25;6.85;;;;;;;-0.41;54.57;99789.44;4455037;32;34989;-78
2022/03/09 00:54:04;;;;;;;12.80;6.47;;;;;;;-0.45;54.36;99787.56;4440395;32;33938;-78
2022/03/09 00:56:33;;;;;;;16.15;7.53;;;;;;;-0.75;56.03;99776.09;4454970;32;34555;-78
2022/03/09 00:59:00;;;;;;;17.10;7.28;;;;;;;-0.34;55.78;99771.75;4454518;32;33863;-79
2022/03/09 01:01:28;;;;;;;13.15;6.35;;;;;;;-0.18;54.86;99774.09;4454793;32;35089;-78
2022/03/09 01:03:57;;;;;;;14.15;6.95;;;;;;;-0.70;55.81;99780.56;4468444;32;35421;-78
2022/03/09 01:06:25;;;;;;;15.23;7.37;;;;;;;-1.35;57.71;99771.84;4470235;32;34530;-78
2022/03/09 01:08:53;;;;;;;14.77;6.15;;;;;;;-1.40;58.74;99758.84;4456336;32;34840;-78
2022/03/09 01:11:21;;;;;;;18.52;6.97;;;;;;;-0.47;56.40;99763.59;4454828;32;35954;-78
2022/03/09 01:13:49;;;;;;;11.63;6.60;;;;;;;0.28;53.22;99762.19;4454488;32;34582;-78
2022/03/09 01:16:17;;;;;;;10.57;5.82;;;;;;;-0.24;53.94;99761.94;4441003;32;33741;-78
2022/03/09 01:18:45;;;;;;;13.65;5.72;;;;;;;-1.19;57.56;99753.81;4454629;32;33818;-79
2022/03/09 01:21:13;;;;;;;13.55;6.12;;;;;;;-0.01;55.39;99749.19;4454390;32;34828;-78
2022/03/09 01:23:41;;;;;;;11.18;5.22;;;;;;;-0.27;55.46;99754.16;4454486;32;34477;-78
2022/03/09 01:26:10;;;;;;;14.25;5.82;;;;;;;-0.19;54.93;99744.22;4454966;32;33747;-79
2022/03/09 01:28:38;;;;;;;9.23;5.40;;;;;;;-1.40;59.33;99753.75;4465085;32;33874;-78
2022/03/09 01:31:05;;;;;;;9.32;4.78;;;;;;;-0.07;55.49;99743.81;4470375;32;35135;-78
2022/03/09 01:33:34;;;;;;;15.13;5.20;;;;;;;0.26;52.60;99751.03;4461520;32;35389;-78
2022/03/09 01:36:02;;;;;;;13.45;6.32;;;;;;;-0.14;53.42;99752.06;4454767;32;33688;-78
2022/03/09 01:38:30;;;;;;;25.62;6.15;;;;;;;-1.33;57.77;99745.53;4464219;32;34618;-78
2022/03/09 01:40:59;;;;;;;8.35;5.10;;;;;;;-0.39;56.27;99740.88;4465800;32;34814;-78
2022/03/09 01:43:27;;;;;;;12.88;6.43;;;;;;;0.06;53.91;99746.03;4459444;32;34908;-78
2022/03/09 01:45:55;;;;;;;12.48;5.70;;;;;;;-0.48;53.51;99750.75;4454688;32;33804;-78
2022/03/09 01:48:24;;;;;;;11.50;6.10;;;;;;;-0.48;54.24;99768.66;4449356;32;34754;-78
2022/03/09 01:50:54;;;;;;;21.35;6.57;;;;;;;-1.20;57.48;99779.28;4456424;32;34186;-78
2022/03/09 01:53:23;;;;;;;11.80;6.68;;;;;;;-0.93;57.82;99776.19;4446477;32;35395;-79
2022/03/09 01:55:51;;;;;;;11.60;5.60;;;;;;;-1.53;59.74;99782.13;4454251;32;33830;-78
2022/03/09 01:58:18;;;;;;;15.73;7.28;;;;;;;-0.10;55.34;99774.44;4439290;32;33860;-78
2022/03/09 02:00:47;;;;;;;9.40;5.03;;;;;;;-0.63;57.26;99782.56;4465092;32;35175;-78
2022/03/09 02:03:15;;;;;;;11.75;5.60;;;;;;;-1.02;58.71;99792.88;4461055;32;34466;-78
2022/03/09 02:05:43;;;;;;;11.73;6.30;;;;;;;-0.08;56.87;99788.16;4454325;32;34586;-78
2022/03/09 02:11:00;;;;;;;12.35;5.35;;;;;;;-0.47;57.84;99778.09;4443220;32;35194;-79
2022/03/09 02:13:28;;;;;;;11.82;5.72;;;;;;;0.48;54.84;99779.19;4462640;32;35349;-78
2022/03/09 02:15:56;;;;;;;14.32;7.47;;;;;;;0.23;54.42;99779.06;4470312;32;34511;-78
2022/03/09 02:18:24;;;;;;;13.25;6.75;;;;;;;-0.52;55.73;99785.56;4459800;32;33669;-78
2022/03/09 02:20:53;;;;;;;10.50;5.68;;;;;;;-0.33;55.34;99787.19;4454296;32;34922;-78
2022/03/09 02:23:21;;;;;;;10.10;5.25;;;;;;;0.70;52.78;99773.13;4447583;32;34576;-78
2022/03/09 02:25:49;;;;;;;13.98;5.95;;;;;;;0.71;52.39;99774.03;4469899;32;33428;-78
2022/03/09 02:28:17;;;;;;;16.42;6.55;;;;;;;0.67;53.12;99767.03;4461341;32;33887;-78
2022/03/09 02:30:45;;;;;;;17.42;7.22;;;;;;;0.75;52.38;99760.50;4453925;32;35265;-78
2022/03/09 02:33:15;;;;;;;14.20;5.32;;;;;;;0.45;54.06;99776.50;4454104;32;35089;-78
2022/03/09 02:35:44;;;;;;;9.57;5.32;;;;;;;0.04;55.98;99769.84;4440286;32;33875;-79
2022/03/09 02:38:12;;;;;;;11.05;5.30;;;;;;;-0.22;56.05;99770.56;4456773;32;33861;-79
2022/03/09 02:40:40;;;;;;;11.65;6.70;;;;;;;-0.60;57.33;99775.03;4453285;32;35094;-78
2022/03/09 02:43:08;;;;;;;13.30;5.80;;;;;;;-0.09;56.14;99776.16;4453560;32;35117;-78
2022/03/09 02:45:37;;;;;;;13.48;6.35;;;;;;;0.27;56.95;99781.81;4454051;32;34467;-78
2022/03/09 02:48:05;;;;;;;15.90;6.45;;;;;;;1.24;53.84;99782.69;4453565;32;33909;-78
2022/03/09 02:50:33;;;;;;;9.40;5.50;;;;;;;1.28;53.29;99776.84;4454051;32;35027;-78
2022/03/09 02:53:01;;;;;;;13.85;6.50;;;;;;;1.19;53.03;99775.69;4453854;32;34100;-79
2022/03/09 02:55:29;;;;;;;11.98;6.32;;;;;;;0.66;55.12;99778.97;4453941;32;33470;-78
2022/03/09 02:57:57;;;;;;;12.70;5.68;;;;;;;-0.12;57.03;99791.41;4453560;32;33991;-78
2022/03/09 03:00:27;;;;;;;7.95;5.18;;;;;;;0.32;56.14;99789.69;4453719;32;34256;-78
2022/03/09 03:02:56;;;;;;;13.35;6.57;;;;;;;0.05;55.67;99786.94;4457059;32;34485;-78
2022/03/09 03:05:24;;;;;;;14.65;6.43;;;;;;;-0.48;56.81;99791.66;4453271;32;33688;-78
2022/03/09 03:07:53;;;;;;;8.82;5.62;;;;;;;1.25;54.05;99779.31;4453461;32;34684;-78
2022/03/09 03:10:22;;;;;;;11.07;5.65;;;;;;;1.47;53.04;99770.63;4455089;32;34312;-78
2022/03/09 03:12:49;;;;;;;10.45;5.57;;;;;;;1.50;53.59;99765.59;4455416;32;34473;-78
2022/03/09 03:15:17;;;;;;;11.25;5.35;;;;;;;1.75;52.58;99762.94;4455546;32;33727;-78
2022/03/09 03:17:46;;;;;;;8.80;4.25;;;;;;;0.93;55.27;99755.13;4453571;32;34011;-78
2022/03/09 03:20:14;;;;;;;9.52;4.80;;;;;;;1.53;54.02;99759.69;4455158;32;35020;-79
2022/03/09 03:22:42;;;;;;;10.95;5.22;;;;;;;1.59;53.02;99759.00;4456477;32;34508;-78
2022/03/09 03:25:10;;;;;;;13.65;5.68;;;;;;;1.55;52.38;99741.78;4470627;32;34077;-79
2022/03/09 03:27:38;;;;;;;9.45;4.53;;;;;;;1.25;53.00;99750.22;4441064;32;33927;-78
2022/03/09 03:30:07;;;;;;;9.63;5.30;;;;;;;0.09;55.83;99761.53;4455585;32;34884;-79
2022/03/09 03:32:36;;;;;;;17.00;6.82;;;;;;;0.69;53.45;99756.03;4455077;32;34470;-78
2022/03/09 03:35:04;;;;;;;10.45;4.70;;;;;;;0.33;53.63;99760.69;4444461;32;33744;-78
2022/03/09 03:37:32;;;;;;;9.88;5.50;;;;;;;-0.18;55.26;99751.06;4455229;32;34795;-78
2022/03/09 03:40:00;;;;;;;11.18;4.85;;;;;;;1.04;54.48;99752.94;4455312;32;34919;-78
2022/03/09 03:42:28;;;;;;;9.82;5.00;;;;;;;1.34;53.64;99753.06;4454931;32;35279;-78
2022/03/09 03:44:56;;;;;;;10.52;4.07;;;;;;;1.72;51.99;99755.16;4455066;32;32954;-79
2022/03/09 03:47:25;;;;;;;10.30;5.85;;;;;;;1.26;52.53;99760.53;4457164;32;34710;-75
2022/03/09 03:49:56;;;;;;;11.38;6.30;;;;;;;0.63;53.23;99763.47;4455275;32;35582;-74
2022/03/09 03:52:24;;;;;;;8.95;5.18;;;;;;;1.16;52.02;99757.59;4455344;32;34472;-74
2022/03/09 03:54:52;;;;;;;9.60;5.40;;;;;;;1.11;53.12;99760.91;4454816;32;33754;-75
2022/03/09 03:57:20;;;;;;;9.68;4.62;;;;;;;1.65;52.28;99767.78;4455090;32;34733;-77
2022/03/09 03:59:48;;;;;;;8.25;4.00;;;;;;;1.06;53.76;99771.78;4468650;32;35973;-77
2022/03/09 04:02:16;;;;;;;10.20;4.90;;;;;;;0.96;52.97;99780.03;4470778;32;34457;-77
2022/03/09 04:04:45;;;;;;;13.95;5.28;;;;;;;0.39;55.86;99773.72;4455881;32;34603;-77
2022/03/09 04:07:13;;;;;;;12.80;4.95;;;;;;;0.64;54.50;99772.06;4454935;32;33952;-77
2022/03/09 04:09:41;;;;;;;8.85;3.85;;;;;;;0.69;55.37;99760.25;4454128;32;35122;-76
2022/03/09 04:12:09;;;;;;;14.38;5.80;;;;;;;1.96;52.79;99770.44;4455031;32;34568;-75
2022/03/09 04:14:38;;;;;;;10.20;5.10;;;;;;;1.85;51.96;99762.41;4454848;32;33720;-74
2022/03/09 04:17:06;;;;;;;10.32;5.37;;;;;;;1.70;51.28;99761.09;4455033;32;34852;-77
2022/03/09 04:19:34;;;;;;;11.60;5.70;;;;;;;1.66;51.82;99756.69;4466651;32;35088;-77
2022/03/09 04:22:05;;;;;;;12.18;5.43;;;;;;;2.03;50.90;99750.13;4456328;32;34597;-76
2022/03/09 04:24:33;;;;;;;11.55;5.57;;;;;;;1.62;52.84;99747.13;4454570;32;33834;-76
2022/03/09 04:27:01;;;;;;;11.98;4.95;;;;;;;2.25;51.04;99743.06;4455165;32;33919;-77
2022/03/09 04:29:29;;;;;;;11.73;4.62;;;;;;;1.69;53.03;99746.53;4465983;32;35020;-75
2022/03/09 04:31:57;;;;;;;11.05;4.25;;;;;;;1.66;52.25;99746.44;4470660;32;33973;-76
2022/03/09 04:34:26;;;;;;;10.85;4.78;;;;;;;1.39;52.34;99745.53;4461405;32;33868;-76
2022/03/09 04:36:54;;;;;;;10.10;6.22;;;;;;;1.21;51.60;99746.69;4454196;32;34708;-77
2022/03/09 04:39:22;;;;;;;12.68;5.43;;;;;;;0.70;52.87;99757.75;4454539;32;34574;-78
2022/03/09 04:41:51;;;;;;;12.10;5.72;;;;;;;0.90;53.19;99755.91;4454835;32;35390;-77
2022/03/09 04:44:18;;;;;;;10.40;5.25;;;;;;;1.12;53.69;99774.59;4464061;32;33907;-76
2022/03/09 04:46:46;;;;;;;10.43;4.90;;;;;;;0.84;56.47;99770.19;4470482;32;34528;-77
2022/03/09 04:49:15;;;;;;;10.82;5.45;;;;;;;0.96;55.74;99767.19;4460244;32;35012;-77
2022/03/09 04:51:42;;;;;;;13.48;5.93;;;;;;;1.28;54.78;99761.44;4454367;32;35169;-75
2022/03/09 04:54:13;;;;;;;15.18;6.03;;;;;;;1.21;55.59;99756.94;4454558;32;32691;-75
2022/03/09 04:56:42;;;;;;;11.27;5.30;;;;;;;1.23;56.06;99765.56;4454897;32;34128;-77
2022/03/09 04:59:13;;;;;;;11.60;5.25;;;;;;;1.55;55.54;99776.00;4453897;32;35174;-76
2022/03/09 05:01:41;;;;;;;9.55;4.93;;;;;;;1.37;55.88;99775.41;4454685;32;35358;-78
2022/03/09 05:04:09;;;;;;;15.18;5.62;;;;;;;1.70;55.05;99773.94;4455156;32;34394;-76
2022/03/09 05:06:38;;;;;;;10.23;5.75;;;;;;;2.29;51.94;99773.16;4454625;32;33879;-78
2022/03/09 05:09:06;;;;;;;13.05;6.65;;;;;;;1.38;55.23;99754.94;4453867;32;35135;-77
2022/03/09 05:11:37;;;;;;;20.27;7.93;;;;;;;1.51;55.02;99753.62;4454811;32;34351;-77
2022/03/09 05:14:05;;;;;;;14.25;6.00;;;;;;;1.18;57.14;99745.69;4448167;32;33825;-78
2022/03/09 05:16:34;;;;;;;12.32;5.80;;;;;;;1.35;55.36;99748.84;4470227;32;33980;-77
2022/03/09 05:19:02;;;;;;;20.35;6.47;;;;;;;1.28;55.33;99738.34;4461885;32;35151;-79
2022/03/09 05:21:30;;;;;;;13.25;5.75;;;;;;;1.40;54.83;99743.03;4454587;32;34544;-78
2022/03/09 05:23:58;;;;;;;11.57;6.62;;;;;;;2.03;49.96;99755.28;4460810;32;34431;-76
2022/03/09 05:26:26;;;;;;;14.40;6.80;;;;;;;2.08;49.84;99765.66;4467380;32;33938;-79
2022/03/09 05:28:57;;;;;;;13.07;6.95;;;;;;;2.05;50.16;99760.47;4454166;32;36032;-77
2022/03/09 05:31:25;;;;;;;12.70;6.47;;;;;;;2.65;48.86;99764.75;4454288;32;33804;-76
2022/03/09 05:33:53;;;;;;;15.88;6.25;;;;;;;2.44;49.45;99758.19;4459307;32;34641;-79
2022/03/09 05:36:22;;;;;;;12.98;6.60;;;;;;;2.68;47.93;99759.69;4456304;32;34864;-77
2022/03/09 05:38:50;;;;;;;12.52;6.00;;;;;;;2.82;47.10;99767.78;4466331;32;35037;-77
2022/03/09 05:41:21;;;;;;;12.25;5.78;;;;;;;2.31;47.85;99763.78;4454332;32;34906;-77
2022/03/09 05:43:50;;;;;;;12.55;6.22;;;;;;;2.73;46.91;99762.41;4453935;32;33879;-78
2022/03/09 05:46:19;;;;;;;14.77;6.32;;;;;;;2.40;47.47;99765.75;4454642;32;33980;-75
2022/03/09 05:48:47;;;;;;;13.40;5.95;;;;;;;2.47;47.68;99771.13;4453620;32;35977;-78
2022/03/09 05:51:15;;;;;;;14.38;7.22;;;;;;;2.01;49.02;99772.34;4440728;32;35234;-78
2022/03/09 05:53:44;;;;;;;13.90;6.97;;;;;;;2.22;48.69;99773.78;4454438;32;33747;-78
2022/03/09 05:56:12;;;;;;;11.95;5.57;;;;;;;2.86;46.73;99779.91;4456344;32;33850;-78
2022/03/09 05:58:40;;;;;;;12.90;6.53;;;;;;;2.36;48.75;99792.19;4470069;32;35147;-77
2022/03/09 06:01:08;;;;;;;12.65;7.20;;;;;;;2.48;47.67;99797.69;4464056;32;35102;-77
2022/03/09 06:03:37;;;;;;;13.68;6.85;;;;;;;1.87;49.68;99802.72;4454755;32;34491;-78
2022/03/09 06:06:05;;;;;;;14.63;7.20;;;;;;;2.49;48.75;99804.59;4469783;32;33934;-78
2022/03/09 06:08:34;;;;;;;12.75;6.20;;;;;;;3.19;46.13;99810.81;4470089;32;34989;-85
2022/03/09 06:11:08;;;;;;;63.15;27.67;;;;;;;3.03;46.82;99818.94;4469835;32;34341;-77
2022/03/09 06:13:36;;;;;;;32.97;18.02;;;;;;;2.96;47.09;99828.19;4462315;32;33868;-78
2022/03/09 06:16:04;;;;;;;21.17;10.10;;;;;;;3.03;47.95;99830.09;4440605;32;33867;-79
2022/03/09 06:18:33;;;;;;;18.25;11.32;;;;;;;3.63;46.69;99830.81;4454204;32;36022;-83
2022/03/09 06:21:01;;;;;;;17.70;8.93;;;;;;;3.24;48.21;99831.50;4454668;32;34285;-82
2022/03/09 06:23:29;;;;;;;17.80;8.23;;;;;;;2.60;48.78;99828.03;4462308;32;33549;-78
2022/03/09 06:25:58;;;;;;;16.20;7.87;;;;;;;2.57;48.67;99833.06;4447904;32;34788;-82
2022/03/09 06:28:26;;;;;;;14.63;8.13;;;;;;;2.72;47.98;99832.63;4453356;32;35031;-79
2022/03/09 06:30:55;;;;;;;16.83;11.35;;;;;;;3.42;47.07;99838.84;4455052;32;35369;-79
2022/03/09 06:33:23;;;;;;;18.33;10.88;;;;;;;3.20;47.02;99833.13;4454093;32;33641;-79
2022/03/09 06:35:51;;;;;;;19.02;11.60;;;;;;;2.69;47.70;99827.44;4456232;32;34879;-83
2022/03/09 06:38:20;;;;;;;19.33;12.13;;;;;;;3.09;46.63;99834.56;4453660;32;36037;-78
2022/03/09 06:40:48;;;;;;;38.60;21.73;;;;;;;2.81;48.47;99840.63;4454063;32;34416;-78
2022/03/09 06:43:16;;;;;;;22.83;11.50;;;;;;;3.24;46.57;99834.09;4460815;32;33736;-84
2022/03/09 06:45:44;;;;;;;42.35;23.42;;;;;;;2.98;48.01;99841.09;4469569;32;33975;-84
2022/03/09 06:48:12;;;;;;;28.98;13.55;;;;;;;2.79;47.74;99835.44;4460764;32;35016;-79
2022/03/09 06:50:40;;;;;;;25.30;12.48;;;;;;;3.36;46.82;99830.97;4454016;32;34266;-79
2022/03/09 06:53:08;;;;;;;71.78;33.83;;;;;;;2.99;47.51;99837.72;4459296;32;33758;-79
2022/03/09 06:55:36;;;;;;;63.87;28.92;;;;;;;2.82;47.53;99834.66;4469490;32;34024;-78
2022/03/09 06:58:04;;;;;;;85.95;38.63;;;;;;;3.21;47.51;99840.03;4453280;32;33621;-78
2022/03/09 07:00:32;;;;;;;25.88;13.57;;;;;;;2.78;48.73;99843.97;4448170;32;33543;-80
2022/03/09 07:03:02;;;;;;;31.95;10.07;;;;;;;3.72;46.51;99828.44;4452974;32;33831;-78
2022/03/09 07:05:30;;;;;;;19.12;9.90;;;;;;;3.87;46.02;99840.00;4464092;32;33680;-78
2022/03/09 07:07:59;;;;;;;19.02;8.93;;;;;;;3.36;47.90;99852.44;4453596;32;35043;-78
2022/03/09 07:10:27;;;;;;;20.02;7.87;;;;;;;3.56;47.73;99857.22;4453327;32;34606;-78
2022/03/09 07:12:55;;;;;;;14.82;8.07;;;;;;;3.82;46.89;99844.16;4453759;32;33774;-78
2022/03/09 07:15:30;;;;;;;18.48;9.45;;;;;;;3.54;47.97;99849.47;4453196;32;34051;-78
2022/03/09 07:17:58;;;;;;;40.83;11.05;;;;;;;3.16;47.59;99851.91;4453666;32;35169;-78
2022/03/09 07:20:27;;;;;;;17.87;8.35;;;;;;;3.43;47.54;99850.91;4452499;32;34463;-81
2022/03/09 07:22:55;;;;;;;18.95;10.75;;;;;;;3.04;48.59;99859.28;4426548;32;33772;-78
2022/03/09 07:25:24;;;;;;;21.70;10.27;;;;;;;3.06;48.92;99860.19;4462950;32;33931;-78
2022/03/09 07:27:58;;;;;;;18.17;9.82;;;;;;;3.27;48.98;99864.19;4469046;32;35804;-77
2022/03/09 07:30:26;;;;;;;22.37;10.77;;;;;;;3.32;48.10;99872.88;4457425;32;34510;-78
2022/03/09 07:32:57;;;;;;;19.17;9.85;;;;;;;3.33;48.76;99880.66;4455183;32;34127;-79
2022/03/09 07:35:26;;;;;;;17.20;9.13;;;;;;;3.50;48.65;99880.25;4462253;32;34608;-79
2022/03/09 07:37:54;;;;;;;18.00;10.25;;;;;;;3.66;48.17;99878.97;4468747;32;34577;-78
2022/03/09 07:40:22;;;;;;;20.88;11.70;;;;;;;3.83;48.11;99866.47;4466059;32;34439;-79
2022/03/09 07:42:50;;;;;;;18.75;8.93;;;;;;;4.06;47.01;99859.31;4468597;32;33794;-81
2022/03/09 07:45:18;;;;;;;20.55;10.25;;;;;;;4.39;46.49;99842.91;4460756;32;34226;-79
2022/03/09 07:47:46;;;;;;;21.52;11.63;;;;;;;4.05;47.32;99832.69;4467047;32;34468;-78
2022/03/09 07:50:15;;;;;;;23.20;11.25;;;;;;;3.53;47.28;99821.09;4467587;32;34507;-75
2022/03/09 07:52:42;;;;;;;28.95;13.40;;;;;;;4.01;46.99;99820.56;4457301;32;33732;-85
2022/03/09 07:55:10;;;;;;;19.98;11.10;;;;;;;4.19;46.65;99814.97;4452187;32;34747;-78
2022/03/09 07:57:39;;;;;;;21.80;10.38;;;;;;;5.22;44.48;99829.97;4455444;32;35180;-82
2022/03/09 08:00:08;;;;;;;19.60;10.32;;;;;;;4.10;46.79;99837.97;4461446;32;34410;-82
2022/03/09 08:02:39;;;;;;;21.40;11.40;;;;;;;4.05;47.81;99847.28;4456051;32;34454;-82
2022/03/09 08:05:11;;;;;;;20.80;10.15;;;;;;;3.80;48.24;99846.69;4441375;32;33876;-82
2022/03/09 08:07:39;;;;;;;14.70;10.05;;;;;;;4.48;47.12;99838.81;4455438;32;36005;-81
2022/03/09 08:10:09;;;;;;;22.80;12.45;;;;;;;4.33;46.98;99839.34;4454819;32;35307;-80
2022/03/09 08:12:38;;;;;;;20.55;10.57;;;;;;;3.93;47.99;99842.69;4455166;32;33747;-80
2022/03/09 08:15:10;;;;;;;26.37;11.65;;;;;;;3.60;49.29;99831.59;4461457;32;34589;-81
2022/03/09 08:17:38;;;;;;;24.87;11.57;;;;;;;3.49;49.77;99833.03;4456007;32;35066;-81
2022/03/09 08:20:07;;;;;;;25.17;10.93;;;;;;;4.31;47.67;99835.00;4463284;32;35253;-81
2022/03/09 08:22:35;;;;;;;22.95;10.38;;;;;;;3.72;48.71;99831.03;4464121;32;34532;-81
2022/03/09 08:25:04;;;;;;;23.25;11.70;;;;;;;4.28;48.32;99825.47;4456922;32;33858;-82
2022/03/09 08:27:32;;;;;;;41.35;20.15;;;;;;;3.99;48.30;99817.09;4455134;32;35336;-79
2022/03/09 08:30:02;;;;;;;89.00;38.97;;;;;;;4.79;47.08;99823.13;4441223;32;34829;-76
2022/03/09 08:32:30;;;;;;;79.47;42.30;;;;;;;4.41;47.45;99821.44;4457483;32;33010;-78
2022/03/09 08:34:58;;;;;;;26.27;14.23;;;;;;;4.35;47.46;99804.13;4454308;32;34790;-76
2022/03/09 08:37:26;;;;;;;25.30;12.18;;;;;;;4.63;47.32;99812.47;4455310;32;35830;-81
2022/03/09 08:39:54;;;;;;;22.92;14.13;;;;;;;5.48;45.40;99807.19;4457505;32;35124;-76
2022/03/09 08:42:22;;;;;;;22.90;11.25;;;;;;;4.89;46.84;99805.25;4455076;32;33700;-76
2022/03/09 08:44:51;;;;;;;23.08;10.93;;;;;;;4.94;45.68;99807.91;4458176;32;33904;-77
2022/03/09 08:47:19;;;;;;;20.62;9.77;;;;;;;4.97;45.96;99807.12;4470605;32;35860;-77
2022/03/09 08:49:47;;;;;;;23.87;11.55;;;;;;;5.20;45.95;99805.84;4466203;32;35256;-76
2022/03/09 09:31:04;;;;;;;28.37;14.53;;;;;;;6.43;46.25;99781.09;4506324;31;204461;-77
2022/03/09 09:33:32;;;;;;;30.37;14.85;;;;;;;7.01;44.49;99779.19;4497187;32;34088;-77
2022/03/09 09:36:00;;;;;;;28.45;14.82;;;;;;;6.82;43.99;99779.84;4483143;32;33959;-78
2022/03/09 09:38:28;;;;;;;22.83;9.90;;;;;;;7.28;43.70;99780.31;4467897;32;34951;-78
2022/03/09 09:40:56;;;;;;;19.58;11.32;;;;;;;7.77;42.61;99765.19;4488492;32;34540;-78
2022/03/09 09:43:24;;;;;;;21.70;10.55;;;;;;;8.05;42.81;99764.53;4471984;32;31892;-78
2022/03/09 09:45:52;;;;;;;22.87;11.45;;;;;;;8.28;41.73;99768.12;4481533;32;33970;-78
2022/03/09 09:48:20;;;;;;;23.90;11.35;;;;;;;8.10;42.45;99762.81;4481910;32;35966;-77
2022/03/09 09:50:52;;;;;;;26.73;12.13;;;;;;;8.21;42.02;99765.50;4473778;32;33472;-76
2022/03/09 09:53:20;;;;;;;20.65;11.32;;;;;;;9.15;40.63;99769.34;4478135;32;33256;-76
2022/03/09 09:55:48;;;;;;;20.35;10.75;;;;;;;9.25;40.51;99773.69;4467133;32;33940;-77
2022/03/09 09:58:19;;;;;;;25.08;10.48;;;;;;;9.66;39.23;99779.78;4467303;32;35154;-77
2022/03/09 10:00:46;;;;;;;23.98;10.77;;;;;;;10.29;37.85;99778.81;4472231;32;33522;-77
2022/03/09 10:03:15;;;;;;;23.90;12.35;;;;;;;10.08;38.36;99775.41;4497598;31;33555;-76
2022/03/09 10:05:43;;;;;;;24.08;13.18;;;;;;;11.28;36.46;99776.69;4491903;31;33825;-77
2022/03/09 10:08:14;;;;;;;238.30;88.80;;;;;;;11.65;36.23;99766.00;4482026;32;35280;-77
2022/03/09 10:10:45;;;;;;;96.18;41.22;;;;;;;12.42;34.37;99773.09;4481515;32;34443;-77
2022/03/09 10:13:13;;;;;;;67.68;34.35;;;;;;;12.45;34.20;99775.69;4467815;32;33470;-78
2022/03/09 10:15:42;;;;;;;26.00;16.55;;;;;;;12.05;34.03;99778.69;4481446;32;33867;-76
2022/03/09 10:18:21;;;;;;;22.52;14.02;;;;;;;12.35;33.03;99776.66;4454835;32;34090;-77
2022/03/09 10:20:50;;;;;;;21.25;12.73;;;;;;;11.67;34.58;99772.91;4470829;32;34364;-77
2022/03/09 10:23:21;;;;;;;13.05;7.03;;;;;;;12.09;34.01;99772.59;4468056;32;33094;-78
2022/03/09 10:26:00;;;;;;;28.30;14.68;;;;;;;12.42;33.79;99762.63;4467465;32;33984;-76
2022/03/09 10:28:28;;;;;;;15.00;8.80;;;;;;;12.93;33.22;99775.94;4467673;32;35060;-77
2022/03/09 10:30:55;;;;;;;16.10;9.95;;;;;;;13.09;32.66;99767.03;4474496;32;34277;-77
2022/03/09 10:33:23;;;;;;;14.60;7.90;;;;;;;12.71;32.93;99759.69;4456890;32;32046;-76
2022/03/09 10:35:51;;;;;;;12.65;7.18;;;;;;;12.99;33.52;99759.31;4474671;32;34714;-77
2022/03/09 10:38:24;;;;;;;17.15;9.27;;;;;;;12.60;33.23;99756.31;4471431;32;35058;-77
2022/03/09 10:40:55;;;;;;;14.23;7.87;;;;;;;12.00;34.38;99747.44;4470828;32;35255;-77
2022/03/09 10:43:26;;;;;;;16.25;9.77;;;;;;;12.79;33.93;99747.38;4471126;32;33511;-77
2022/03/09 10:46:11;;;;;;;16.05;8.13;;;;;;;13.05;33.00;99733.94;4470566;32;33938;-77
2022/03/09 10:49:08;;;;;;;14.15;9.07;;;;;;;12.75;33.70;99729.16;4471158;32;35967;-77
2022/03/09 10:51:38;;;;;;;18.05;8.85;;;;;;;13.30;32.94;99723.12;4449833;32;35004;-78
2022/03/09 10:54:16;;;;;;;15.55;7.82;;;;;;;12.99;33.38;99720.97;4485027;32;33466;-76
2022/03/09 10:56:45;;;;;;;14.50;7.67;;;;;;;12.91;33.47;99709.75;4457042;32;34940;-77
2022/03/09 10:59:19;;;;;;;15.98;9.02;;;;;;;13.30;33.10;99707.41;4457007;32;35692;-78
2022/03/09 11:02:03;;;;;;;14.98;7.95;;;;;;;12.64;34.37;99711.00;4456949;32;35085;-77
2022/03/09 11:04:30;;;;;;;16.35;9.02;;;;;;;12.78;33.93;99713.44;4456998;32;34330;-78
2022/03/09 11:06:59;;;;;;;14.82;8.20;;;;;;;13.39;33.50;99712.53;4470526;32;33896;-77
2022/03/09 11:09:26;;;;;;;18.00;9.45;;;;;;;13.50;33.01;99717.63;4456867;32;35900;-77
2022/03/09 11:11:55;;;;;;;15.77;9.40;;;;;;;13.00;33.59;99708.75;4470493;32;34037;-77
2022/03/09 11:14:26;;;;;;;14.77;8.13;;;;;;;13.46;33.29;99708.97;4470424;32;34188;-77
2022/03/09 11:16:57;;;;;;;17.65;10.13;;;;;;;14.14;32.43;99702.50;4456975;32;33912;-77
2022/03/09 11:19:27;;;;;;;15.48;8.13;;;;;;;14.54;32.00;99706.03;4457244;32;35100;-77
2022/03/09 11:21:55;;;;;;;20.67;10.50;;;;;;;14.12;32.06;99706.91;4457935;32;35099;-76
2022/03/09 11:24:24;;;;;;;15.77;9.30;;;;;;;13.26;33.45;99705.75;4443988;32;32843;-77
2022/03/09 11:26:57;;;;;;;17.05;9.65;;;;;;;12.57;35.52;99705.00;4450271;32;34266;-78
2022/03/09 11:29:31;;;;;;;17.10;9.68;;;;;;;14.33;32.08;99704.72;4472390;32;35815;-77
2022/03/09 11:31:59;;;;;;;17.00;9.30;;;;;;;14.42;31.98;99699.31;4474938;32;35273;-77
2022/03/09 11:34:42;;;;;;;15.77;9.45;;;;;;;13.84;32.47;99694.31;4443455;32;32708;-77
2022/03/09 11:37:18;;;;;;;22.95;13.50;;;;;;;14.54;32.16;99685.97;4467100;32;33892;-78
2022/03/09 11:40:10;;;;;;;15.77;8.35;;;;;;;15.68;31.02;99685.91;4486333;32;35834;-77
2022/03/09 11:42:41;;;;;;;13.90;8.40;;;;;;;14.21;31.73;99683.13;4456392;32;32870;-77
2022/03/09 11:45:15;;;;;;;14.30;8.60;;;;;;;14.27;31.78;99681.28;4456811;32;33333;-77
2022/03/09 11:48:04;;;;;;;18.02;8.77;;;;;;;13.12;33.51;99679.81;4470591;32;34605;-77
2022/03/09 11:50:56;;;;;;;16.15;8.35;;;;;;;13.48;32.74;99680.13;4473767;32;35095;-76
2022/03/09 11:53:48;;;;;;;36.17;8.55;;;;;;;14.39;31.78;99681.03;4470156;32;35098;-77
2022/03/09 11:56:34;;;;;;;13.27;6.72;;;;;;;13.21;32.81;99676.19;4470221;32;33361;-77
2022/03/09 11:59:12;;;;;;;14.70;7.43;;;;;;;13.39;32.49;99665.44;4470632;32;33818;-77
2022/03/09 12:01:58;;;;;;;13.20;7.68;;;;;;;13.42;33.42;99681.09;4456869;32;35865;-78
2022/03/09 12:04:51;;;;;;;14.87;6.65;;;;;;;13.60;32.91;99663.34;4470584;32;34470;-77
2022/03/09 12:07:27;;;;;;;14.93;7.47;;;;;;;13.73;32.49;99670.09;4470443;32;33477;-77
2022/03/09 12:09:59;;;;;;;12.37;6.75;;;;;;;12.99;33.81;99666.09;4470052;32;34099;-77
2022/03/09 12:12:28;;;;;;;15.32;7.97;;;;;;;11.97;35.26;99676.16;4456099;32;35067;-77
2022/03/09 12:15:03;;;;;;;13.07;6.95;;;;;;;11.94;35.84;99662.22;4456731;32;33728;-77
2022/03/09 12:17:31;;;;;;;15.10;6.97;;;;;;;11.88;35.70;99659.66;4470183;32;33396;-78
2022/03/09 12:20:23;;;;;;;12.80;7.03;;;;;;;11.52;36.23;99661.78;4456546;32;33849;-78
2022/03/09 12:22:57;;;;;;;20.95;7.57;;;;;;;10.99;37.15;99658.75;4459090;32;35927;-78